Vestborg — E5U2070 — position and weather

sailwx.info

Track history (hours):
 
Tides and Currents Weather Stations Pressure Air Temp Water Temp Dewpoint Dewpoint Depression Visibility Wind Speed Wind Dir Waves Ship Positions

Vestborg

Last reported at 2015-Mar-27 16:16 UTC. Time now 2015-Mar-27 17:24 UTC.
Position N 59°11' E 009°37'.

Length 66 m; draft 5.3 m.

Type: Cargo ship. MMSI: 518120000.

Date/timePositionNaut miles runAvg speedWind from/ knotsBaromVisibWave heightAir tempDewpointWater temp
2015-Mar-27 16:16N 59°11' E 009°37'0 0.0
2015-Mar-27 15:31N 59°11' E 009°37'0 0.0
2015-Mar-27 14:31N 59°11' E 009°37'0 0.0
2015-Mar-27 13:33N 59°11' E 009°37'0 0.0
2015-Mar-27 12:33N 59°11' E 009°37'0 0.0
2015-Mar-27 11:33N 59°11' E 009°37'0 0.0
2015-Mar-27 10:33N 59°11' E 009°37'0 0.0
2015-Mar-27 09:33N 59°11' E 009°37'0 0.0
2015-Mar-27 08:33N 59°11' E 009°37'3 3.2
2015-Mar-27 07:27N 59°08' E 009°37'1 0.6
2015-Mar-27 06:23N 59°07' E 009°36'6 7.7
2015-Mar-27 05:33N 59°02' E 009°44'33 6.3
2015-Mar-27 00:24N 59°02' E 010°47'6 7.1
2015-Mar-26 23:33N 58°60' E 010°58'6 5.5
2015-Mar-26 22:25N 59°03' E 011°09'8 0.4
2015-Mar-26 01:23N 59°06' E 011°22'5 4.8
2015-Mar-26 00:24N 59°05' E 011°13'8 8.6
2015-Mar-25 23:28N 58°59' E 011°03'8 8.7
2015-Mar-25 22:32N 59°03' E 010°50'9 9.4
2015-Mar-25 21:34N 59°10' E 010°38'10 9.7
2015-Mar-25 20:33N 59°19' E 010°35'10 9.6
2015-Mar-25 19:33N 59°29' E 010°34'25 8.1
2015-Mar-25 16:27N 59°53' E 010°45'0 0.0
2015-Mar-25 15:27N 59°53' E 010°45'0 0.0
2015-Mar-25 14:24N 59°53' E 010°45'0 0.0
2015-Mar-25 13:30N 59°53' E 010°45'0 0.0
2015-Mar-25 12:27N 59°53' E 010°45'0 0.0
2015-Mar-25 11:27N 59°53' E 010°45'0 0.0
2015-Mar-25 10:30N 59°53' E 010°45'0 0.0
2015-Mar-25 09:33N 59°53' E 010°45'0 0.0
2015-Mar-25 08:30N 59°53' E 010°45'0 0.0
2015-Mar-25 07:33N 59°53' E 010°45'0 0.0
2015-Mar-25 06:33N 59°53' E 010°45'0 0.0
2015-Mar-25 05:33N 59°53' E 010°45'0 0.0
2015-Mar-25 04:33N 59°53' E 010°45'0 0.0
2015-Mar-25 03:24N 59°53' E 010°45'0 0.0
2015-Mar-25 02:27N 59°53' E 010°45'0 0.0
2015-Mar-25 01:27N 59°53' E 010°45'0 0.0
2015-Mar-25 00:33N 59°53' E 010°45'0 0.0
2015-Mar-24 23:33N 59°53' E 010°45'3 2.7
2015-Mar-24 22:33N 59°53' E 010°40'17 8.4
2015-Mar-24 20:32N 59°36' E 010°38'9 8.8
2015-Mar-24 19:33N 59°27' E 010°34'9 9.3
2015-Mar-24 18:33N 59°18' E 010°37'10 9.7
2015-Mar-24 17:33N 59°09' E 010°41'9 9.3
2015-Mar-24 16:33N 59°01' E 010°52'8 7.2
2015-Mar-24 15:28N 59°09' E 010°58'3 3.2
2015-Mar-24 14:33N 59°11' E 010°57'0 0.0
2015-Mar-24 13:33N 59°11' E 010°57'0 0.0
2015-Mar-24 12:29N 59°11' E 010°57'0 0.0
2015-Mar-24 11:22N 59°11' E 010°57'0 0.0
2015-Mar-24 10:12N 59°11' E 010°57'0 0.0
2015-Mar-24 08:21N 59°11' E 010°57'0 0.0
2015-Mar-24 07:33N 59°11' E 010°57'0 0.0
2015-Mar-24 06:33N 59°11' E 010°57'0 0.0
2015-Mar-24 05:33N 59°11' E 010°57'0 0.0
2015-Mar-24 04:33N 59°11' E 010°57'0 0.0
2015-Mar-24 03:32N 59°11' E 010°57'0 0.0
2015-Mar-24 02:33N 59°11' E 010°57'3 3.5
2015-Mar-24 01:33N 59°08' E 010°58'8 7.5
2015-Mar-24 00:33N 59°01' E 010°53'8 7.9
2015-Mar-23 23:33N 58°55' E 010°42'10 9.8
2015-Mar-23 22:34N 58°46' E 010°43'9 9.0
2015-Mar-23 21:33N 58°37' E 010°46'9 8.9
2015-Mar-23 20:34N 58°28' E 010°47'9 9.3
2015-Mar-23 19:33N 58°19' E 010°47'1010.0
2015-Mar-23 18:34N 58°09' E 010°47'9 9.5
2015-Mar-23 17:33N 57°59' E 010°47'9 9.2
2015-Mar-23 16:34N 57°50' E 010°47'20 9.9
2015-Mar-23 14:33N 57°30' E 010°45'1110.2
2015-Mar-23 13:25N 57°19' E 010°43'24 8.3
2015-Mar-23 10:33N 56°59' E 010°18'9 8.9
2015-Mar-23 09:34N 57°03' E 010°04'0 0.2
2015-Mar-23 08:28N 57°03' E 010°04'0 0.0
2015-Mar-23 05:31N 57°03' E 010°04'0 0.0
2015-Mar-23 04:16N 57°03' E 010°04'0 0.0
2015-Mar-23 03:28N 57°03' E 010°04'0 0.0
2015-Mar-23 02:28N 57°03' E 010°04'0 0.0
2015-Mar-23 01:31N 57°03' E 010°04'0 0.0
2015-Mar-23 00:28N 57°03' E 010°04'0 0.0
2015-Mar-22 23:28N 57°03' E 010°04'0 0.0
2015-Mar-22 22:33N 57°03' E 010°04'3 3.2
2015-Mar-22 21:33N 57°01' E 010°09'39 6.4
2015-Mar-22 15:26N 57°36' E 010°43'140 8.3
2015-Mar-21 22:33N 58°08' E 006°28'8 8.4
2015-Mar-21 21:33N 58°14' E 006°18'6 0.9
2015-Mar-21 15:29N 58°20' E 006°16'0 0.0
2015-Mar-21 13:31N 58°20' E 006°16'0 0.1
2015-Mar-21 12:33N 58°20' E 006°16'0 0.0
2015-Mar-21 11:33N 58°20' E 006°16'3 2.8
2015-Mar-21 10:34N 58°19' E 006°11'1010.4
2015-Mar-21 09:33N 58°23' E 005°53'9 9.4
2015-Mar-21 08:33N 58°29' E 005°39'12 9.1
2015-Mar-21 07:12N 58°40' E 005°27'6 9.4
2015-Mar-21 06:33N 58°46' E 005°23'9 9.3
2015-Mar-21 05:33N 58°55' E 005°19'10 9.6
2015-Mar-21 04:33N 59°04' E 005°19'1010.3
2015-Mar-21 03:34N 59°15' E 005°20'13 0.5
2015-Mar-20 00:16N 59°27' E 005°14'14 7.7
2015-Mar-19 22:25N 59°14' E 005°27'7 8.6
2015-Mar-19 21:34N 59°10' E 005°38'9 8.6
2015-Mar-19 20:33N 59°04' E 005°51'8 8.2
2015-Mar-19 19:33N 58°57' E 005°58'7 7.4
2015-Mar-19 18:33N 58°52' E 006°09'0 0.0
2015-Mar-19 17:05N 58°52' E 006°09'0 0.0
2015-Mar-19 16:23N 58°52' E 006°09'0 0.0
2015-Mar-19 15:33N 58°52' E 006°09'3 3.5
2015-Mar-19 14:33N 58°54' E 006°04'9 8.9
2015-Mar-19 13:33N 58°58' E 005°48'2 1.7
2015-Mar-19 12:33N 58°57' E 005°45'0 0.0
2015-Mar-19 11:33N 58°57' E 005°45'0 0.0
2015-Mar-19 10:33N 58°57' E 005°45'0 0.0
2015-Mar-19 09:33N 58°57' E 005°45'0 0.0
2015-Mar-19 08:33N 58°57' E 005°45'0 0.0
2015-Mar-19 07:33N 58°57' E 005°45'0 0.0
2015-Mar-19 06:33N 58°57' E 005°45'0 0.0
2015-Mar-19 05:33N 58°57' E 005°45'0 0.0
2015-Mar-19 04:33N 58°57' E 005°45'0 0.0
2015-Mar-19 03:33N 58°57' E 005°45'0 0.0
2015-Mar-19 02:33N 58°57' E 005°45'0 0.0
2015-Mar-19 01:33N 58°57' E 005°45'0 0.0
2015-Mar-19 00:33N 58°57' E 005°45'0 0.0
2015-Mar-18 23:33N 58°57' E 005°45'0 0.0
2015-Mar-18 22:33N 58°57' E 005°45'0 0.0
2015-Mar-18 21:33N 58°57' E 005°45'0 0.0
2015-Mar-18 20:33N 58°57' E 005°45'0 0.0
2015-Mar-18 19:33N 58°57' E 005°45'0 0.0
2015-Mar-18 18:33N 58°57' E 005°45'0 0.0
2015-Mar-18 17:33N 58°57' E 005°45'0 0.0
2015-Mar-18 16:33N 58°57' E 005°45'0 0.0
2015-Mar-18 15:34N 58°57' E 005°45'0 0.1
2015-Mar-18 14:33N 58°57' E 005°45'2 1.6
2015-Mar-18 13:33N 58°58' E 005°45'0 0.0
2015-Mar-18 12:33N 58°58' E 005°45'0 0.0
2015-Mar-18 11:33N 58°58' E 005°45'0 0.0
2015-Mar-18 10:33N 58°58' E 005°45'0 0.0
2015-Mar-18 09:33N 58°58' E 005°45'0 0.0
2015-Mar-18 08:33N 58°58' E 005°45'0 0.0
2015-Mar-18 07:33N 58°58' E 005°45'3 2.8
2015-Mar-18 06:33N 59°01' E 005°43'10 9.7
2015-Mar-18 05:33N 59°07' E 005°28'9 8.4
2015-Mar-18 04:33N 59°14' E 005°20'10 8.9
2015-Mar-18 03:29N 59°23' E 005°17'  
Track history (hours):
 
Tides and Currents Weather Stations Pressure Air Temp Water Temp Dewpoint Dewpoint Depression Visibility Wind Speed Wind Dir Waves Ship Positions

Vestborg

Last reported at 2015-Mar-27 16:16 UTC. Time now 2015-Mar-27 17:24 UTC.
Position N 59°11' E 009°37'.

Length 66 m; draft 5.3 m.

Type: Cargo ship. MMSI: 518120000.

Date/timePositionNaut miles runAvg speedWind from/ knotsBaromVisibWave heightAir tempDewpointWater temp
2015-Mar-27 16:16N 59°11' E 009°37'0 0.0
2015-Mar-27 15:31N 59°11' E 009°37'0 0.0
2015-Mar-27 14:31N 59°11' E 009°37'0 0.0
2015-Mar-27 13:33N 59°11' E 009°37'0 0.0
2015-Mar-27 12:33N 59°11' E 009°37'0 0.0
2015-Mar-27 11:33N 59°11' E 009°37'0 0.0
2015-Mar-27 10:33N 59°11' E 009°37'0 0.0
2015-Mar-27 09:33N 59°11' E 009°37'0 0.0
2015-Mar-27 08:33N 59°11' E 009°37'3 3.2
2015-Mar-27 07:27N 59°08' E 009°37'1 0.6
2015-Mar-27 06:23N 59°07' E 009°36'6 7.7
2015-Mar-27 05:33N 59°02' E 009°44'33 6.3
2015-Mar-27 00:24N 59°02' E 010°47'6 7.1
2015-Mar-26 23:33N 58°60' E 010°58'6 5.5
2015-Mar-26 22:25N 59°03' E 011°09'8 0.4
2015-Mar-26 01:23N 59°06' E 011°22'5 4.8
2015-Mar-26 00:24N 59°05' E 011°13'8 8.6
2015-Mar-25 23:28N 58°59' E 011°03'8 8.7
2015-Mar-25 22:32N 59°03' E 010°50'9 9.4
2015-Mar-25 21:34N 59°10' E 010°38'10 9.7
2015-Mar-25 20:33N 59°19' E 010°35'10 9.6
2015-Mar-25 19:33N 59°29' E 010°34'25 8.1
2015-Mar-25 16:27N 59°53' E 010°45'0 0.0
2015-Mar-25 15:27N 59°53' E 010°45'0 0.0
2015-Mar-25 14:24N 59°53' E 010°45'0 0.0
2015-Mar-25 13:30N 59°53' E 010°45'0 0.0
2015-Mar-25 12:27N 59°53' E 010°45'0 0.0
2015-Mar-25 11:27N 59°53' E 010°45'0 0.0
2015-Mar-25 10:30N 59°53' E 010°45'0 0.0
2015-Mar-25 09:33N 59°53' E 010°45'0 0.0
2015-Mar-25 08:30N 59°53' E 010°45'0 0.0
2015-Mar-25 07:33N 59°53' E 010°45'0 0.0
2015-Mar-25 06:33N 59°53' E 010°45'0 0.0
2015-Mar-25 05:33N 59°53' E 010°45'0 0.0
2015-Mar-25 04:33N 59°53' E 010°45'0 0.0
2015-Mar-25 03:24N 59°53' E 010°45'0 0.0
2015-Mar-25 02:27N 59°53' E 010°45'0 0.0
2015-Mar-25 01:27N 59°53' E 010°45'0 0.0
2015-Mar-25 00:33N 59°53' E 010°45'0 0.0
2015-Mar-24 23:33N 59°53' E 010°45'3 2.7
2015-Mar-24 22:33N 59°53' E 010°40'17 8.4
2015-Mar-24 20:32N 59°36' E 010°38'9 8.8
2015-Mar-24 19:33N 59°27' E 010°34'9 9.3
2015-Mar-24 18:33N 59°18' E 010°37'10 9.7
2015-Mar-24 17:33N 59°09' E 010°41'9 9.3
2015-Mar-24 16:33N 59°01' E 010°52'8 7.2
2015-Mar-24 15:28N 59°09' E 010°58'3 3.2
2015-Mar-24 14:33N 59°11' E 010°57'0 0.0
2015-Mar-24 13:33N 59°11' E 010°57'0 0.0
2015-Mar-24 12:29N 59°11' E 010°57'0 0.0
2015-Mar-24 11:22N 59°11' E 010°57'0 0.0
2015-Mar-24 10:12N 59°11' E 010°57'0 0.0
2015-Mar-24 08:21N 59°11' E 010°57'0 0.0
2015-Mar-24 07:33N 59°11' E 010°57'0 0.0
2015-Mar-24 06:33N 59°11' E 010°57'0 0.0
2015-Mar-24 05:33N 59°11' E 010°57'0 0.0
2015-Mar-24 04:33N 59°11' E 010°57'0 0.0
2015-Mar-24 03:32N 59°11' E 010°57'0 0.0
2015-Mar-24 02:33N 59°11' E 010°57'3 3.5
2015-Mar-24 01:33N 59°08' E 010°58'8 7.5
2015-Mar-24 00:33N 59°01' E 010°53'8 7.9
2015-Mar-23 23:33N 58°55' E 010°42'10 9.8
2015-Mar-23 22:34N 58°46' E 010°43'9 9.0
2015-Mar-23 21:33N 58°37' E 010°46'9 8.9
2015-Mar-23 20:34N 58°28' E 010°47'9 9.3
2015-Mar-23 19:33N 58°19' E 010°47'1010.0
2015-Mar-23 18:34N 58°09' E 010°47'9 9.5
2015-Mar-23 17:33N 57°59' E 010°47'9 9.2
2015-Mar-23 16:34N 57°50' E 010°47'20 9.9
2015-Mar-23 14:33N 57°30' E 010°45'1110.2
2015-Mar-23 13:25N 57°19' E 010°43'24 8.3
2015-Mar-23 10:33N 56°59' E 010°18'9 8.9
2015-Mar-23 09:34N 57°03' E 010°04'0 0.2
2015-Mar-23 08:28N 57°03' E 010°04'0 0.0
2015-Mar-23 05:31N 57°03' E 010°04'0 0.0
2015-Mar-23 04:16N 57°03' E 010°04'0 0.0
2015-Mar-23 03:28N 57°03' E 010°04'0 0.0
2015-Mar-23 02:28N 57°03' E 010°04'0 0.0
2015-Mar-23 01:31N 57°03' E 010°04'0 0.0
2015-Mar-23 00:28N 57°03' E 010°04'0 0.0
2015-Mar-22 23:28N 57°03' E 010°04'0 0.0
2015-Mar-22 22:33N 57°03' E 010°04'3 3.2
2015-Mar-22 21:33N 57°01' E 010°09'39 6.4
2015-Mar-22 15:26N 57°36' E 010°43'140 8.3
2015-Mar-21 22:33N 58°08' E 006°28'8 8.4
2015-Mar-21 21:33N 58°14' E 006°18'6 0.9
2015-Mar-21 15:29N 58°20' E 006°16'0 0.0
2015-Mar-21 13:31N 58°20' E 006°16'0 0.1
2015-Mar-21 12:33N 58°20' E 006°16'0 0.0
2015-Mar-21 11:33N 58°20' E 006°16'3 2.8
2015-Mar-21 10:34N 58°19' E 006°11'1010.4
2015-Mar-21 09:33N 58°23' E 005°53'9 9.4
2015-Mar-21 08:33N 58°29' E 005°39'12 9.1
2015-Mar-21 07:12N 58°40' E 005°27'6 9.4
2015-Mar-21 06:33N 58°46' E 005°23'9 9.3
2015-Mar-21 05:33N 58°55' E 005°19'10 9.6
2015-Mar-21 04:33N 59°04' E 005°19'1010.3
2015-Mar-21 03:34N 59°15' E 005°20'13 0.5
2015-Mar-20 00:16N 59°27' E 005°14'14 7.7
2015-Mar-19 22:25N 59°14' E 005°27'7 8.6
2015-Mar-19 21:34N 59°10' E 005°38'9 8.6
2015-Mar-19 20:33N 59°04' E 005°51'8 8.2
2015-Mar-19 19:33N 58°57' E 005°58'7 7.4
2015-Mar-19 18:33N 58°52' E 006°09'0 0.0
2015-Mar-19 17:05N 58°52' E 006°09'0 0.0
2015-Mar-19 16:23N 58°52' E 006°09'0 0.0
2015-Mar-19 15:33N 58°52' E 006°09'3 3.5
2015-Mar-19 14:33N 58°54' E 006°04'9 8.9
2015-Mar-19 13:33N 58°58' E 005°48'2 1.7
2015-Mar-19 12:33N 58°57' E 005°45'0 0.0
2015-Mar-19 11:33N 58°57' E 005°45'0 0.0
2015-Mar-19 10:33N 58°57' E 005°45'0 0.0
2015-Mar-19 09:33N 58°57' E 005°45'0 0.0
2015-Mar-19 08:33N 58°57' E 005°45'0 0.0
2015-Mar-19 07:33N 58°57' E 005°45'0 0.0
2015-Mar-19 06:33N 58°57' E 005°45'0 0.0
2015-Mar-19 05:33N 58°57' E 005°45'0 0.0
2015-Mar-19 04:33N 58°57' E 005°45'0 0.0
2015-Mar-19 03:33N 58°57' E 005°45'0 0.0
2015-Mar-19 02:33N 58°57' E 005°45'0 0.0
2015-Mar-19 01:33N 58°57' E 005°45'0 0.0
2015-Mar-19 00:33N 58°57' E 005°45'0 0.0
2015-Mar-18 23:33N 58°57' E 005°45'0 0.0
2015-Mar-18 22:33N 58°57' E 005°45'0 0.0
2015-Mar-18 21:33N 58°57' E 005°45'0 0.0
2015-Mar-18 20:33N 58°57' E 005°45'0 0.0
2015-Mar-18 19:33N 58°57' E 005°45'0 0.0
2015-Mar-18 18:33N 58°57' E 005°45'0 0.0
2015-Mar-18 17:33N 58°57' E 005°45'0 0.0
2015-Mar-18 16:33N 58°57' E 005°45'0 0.0
2015-Mar-18 15:34N 58°57' E 005°45'0 0.1
2015-Mar-18 14:33N 58°57' E 005°45'2 1.6
2015-Mar-18 13:33N 58°58' E 005°45'0 0.0
2015-Mar-18 12:33N 58°58' E 005°45'0 0.0
2015-Mar-18 11:33N 58°58' E 005°45'0 0.0
2015-Mar-18 10:33N 58°58' E 005°45'0 0.0
2015-Mar-18 09:33N 58°58' E 005°45'0 0.0
2015-Mar-18 08:33N 58°58' E 005°45'0 0.0
2015-Mar-18 07:33N 58°58' E 005°45'3 2.8
2015-Mar-18 06:33N 59°01' E 005°43'10 9.7
2015-Mar-18 05:33N 59°07' E 005°28'9 8.4
2015-Mar-18 04:33N 59°14' E 005°20'10 8.9
2015-Mar-18 03:29N 59°23' E 005°17'  

Dump ship's entire track history